sensor_id;sensor_type;location;lat;lon;timestamp;P1;durP1;ratioP1;P2;durP2;ratioP2
79578;SDS011;69051;52.406;5.280;2024-02-26T00:00:14;10.32;;;5.07;;
79578;SDS011;69051;52.406;5.280;2024-02-26T00:02:42;10.90;;;5.72;;
79578;SDS011;69051;52.406;5.280;2024-02-26T00:05:08;15.43;;;5.85;;
79578;SDS011;69051;52.406;5.280;2024-02-26T00:07:35;7.32;;;3.45;;
79578;SDS011;69051;52.406;5.280;2024-02-26T00:10:02;11.75;;;5.00;;
79578;SDS011;69051;52.406;5.280;2024-02-26T00:12:28;13.02;;;6.07;;
79578;SDS011;69051;52.406;5.280;2024-02-26T00:14:55;13.25;;;5.45;;
79578;SDS011;69051;52.406;5.280;2024-02-26T00:17:24;11.48;;;5.63;;
79578;SDS011;69051;52.406;5.280;2024-02-26T00:19:51;16.27;;;6.20;;
79578;SDS011;69051;52.406;5.280;2024-02-26T00:22:17;23.85;;;6.85;;
79578;SDS011;69051;52.406;5.280;2024-02-26T00:24:44;16.13;;;5.93;;
79578;SDS011;69051;52.406;5.280;2024-02-26T00:27:10;16.15;;;6.18;;
79578;SDS011;69051;52.406;5.280;2024-02-26T00:29:37;14.75;;;7.18;;
79578;SDS011;69051;52.406;5.280;2024-02-26T00:32:03;13.77;;;6.20;;
79578;SDS011;69051;52.406;5.280;2024-02-26T00:34:30;16.45;;;7.57;;
79578;SDS011;69051;52.406;5.280;2024-02-26T00:36:57;16.40;;;7.30;;
79578;SDS011;69051;52.406;5.280;2024-02-26T00:39:23;13.82;;;7.22;;
79578;SDS011;69051;52.406;5.280;2024-02-26T00:41:50;14.77;;;6.68;;
79578;SDS011;69051;52.406;5.280;2024-02-26T00:44:18;15.82;;;7.07;;
79578;SDS011;69051;52.406;5.280;2024-02-26T00:46:44;13.52;;;5.80;;
79578;SDS011;69051;52.406;5.280;2024-02-26T00:49:11;16.92;;;6.82;;
79578;SDS011;69051;52.406;5.280;2024-02-26T00:51:37;17.17;;;8.05;;
79578;SDS011;69051;52.406;5.280;2024-02-26T00:54:04;15.65;;;5.50;;
79578;SDS011;69051;52.406;5.280;2024-02-26T00:56:30;12.60;;;6.20;;
79578;SDS011;69051;52.406;5.280;2024-02-26T00:58:58;14.20;;;5.88;;
79578;SDS011;69051;52.406;5.280;2024-02-26T01:01:24;13.82;;;6.05;;
79578;SDS011;69051;52.406;5.280;2024-02-26T01:03:51;14.07;;;6.22;;
79578;SDS011;69051;52.406;5.280;2024-02-26T01:06:17;14.27;;;7.05;;
79578;SDS011;69051;52.406;5.280;2024-02-26T01:08:44;12.60;;;6.57;;
79578;SDS011;69051;52.406;5.280;2024-02-26T01:11:11;11.77;;;5.82;;
79578;SDS011;69051;52.406;5.280;2024-02-26T01:13:37;13.85;;;5.47;;
79578;SDS011;69051;52.406;5.280;2024-02-26T01:16:04;10.95;;;5.60;;
79578;SDS011;69051;52.406;5.280;2024-02-26T01:18:30;10.70;;;5.28;;
79578;SDS011;69051;52.406;5.280;2024-02-26T01:20:57;12.05;;;6.50;;
79578;SDS011;69051;52.406;5.280;2024-02-26T01:23:24;11.07;;;4.45;;
79578;SDS011;69051;52.406;5.280;2024-02-26T01:25:50;15.73;;;5.93;;
79578;SDS011;69051;52.406;5.280;2024-02-26T01:28:17;11.90;;;6.07;;
79578;SDS011;69051;52.406;5.280;2024-02-26T01:30:44;13.98;;;6.53;;
79578;SDS011;69051;52.406;5.280;2024-02-26T01:33:10;13.02;;;6.25;;
79578;SDS011;69051;52.406;5.280;2024-02-26T01:35:37;16.42;;;6.68;;
79578;SDS011;69051;52.406;5.280;2024-02-26T01:38:03;16.95;;;7.43;;
79578;SDS011;69051;52.406;5.280;2024-02-26T01:40:30;17.83;;;8.02;;
79578;SDS011;69051;52.406;5.280;2024-02-26T01:42:56;15.02;;;7.00;;
79578;SDS011;69051;52.406;5.280;2024-02-26T01:45:23;15.52;;;7.60;;
79578;SDS011;69051;52.406;5.280;2024-02-26T01:47:53;16.70;;;8.52;;
79578;SDS011;69051;52.406;5.280;2024-02-26T01:50:21;17.42;;;7.65;;
79578;SDS011;69051;52.406;5.280;2024-02-26T01:52:50;14.20;;;6.35;;
79578;SDS011;69051;52.406;5.280;2024-02-26T01:55:17;17.15;;;8.23;;
79578;SDS011;69051;52.406;5.280;2024-02-26T01:57:45;20.83;;;8.27;;
79578;SDS011;69051;52.406;5.280;2024-02-26T02:00:12;19.55;;;8.55;;
79578;SDS011;69051;52.406;5.280;2024-02-26T02:02:40;18.98;;;8.27;;
79578;SDS011;69051;52.406;5.280;2024-02-26T02:05:08;16.83;;;8.25;;
79578;SDS011;69051;52.406;5.280;2024-02-26T02:07:36;18.70;;;10.55;;
79578;SDS011;69051;52.406;5.280;2024-02-26T02:10:03;19.35;;;9.48;;
79578;SDS011;69051;52.406;5.280;2024-02-26T02:12:29;15.07;;;6.82;;
79578;SDS011;69051;52.406;5.280;2024-02-26T02:14:59;17.35;;;8.35;;
79578;SDS011;69051;52.406;5.280;2024-02-26T02:17:25;20.13;;;8.25;;
79578;SDS011;69051;52.406;5.280;2024-02-26T02:19:53;20.02;;;10.15;;
79578;SDS011;69051;52.406;5.280;2024-02-26T02:22:19;19.90;;;9.07;;
79578;SDS011;69051;52.406;5.280;2024-02-26T02:24:46;20.83;;;7.60;;
79578;SDS011;69051;52.406;5.280;2024-02-26T02:27:12;20.23;;;9.63;;
79578;SDS011;69051;52.406;5.280;2024-02-26T02:29:39;22.80;;;7.10;;
79578;SDS011;69051;52.406;5.280;2024-02-26T02:32:05;20.50;;;8.00;;
79578;SDS011;69051;52.406;5.280;2024-02-26T02:34:32;21.38;;;8.40;;
79578;SDS011;69051;52.406;5.280;2024-02-26T02:37:00;19.27;;;9.73;;
79578;SDS011;69051;52.406;5.280;2024-02-26T02:39:26;19.80;;;8.90;;
79578;SDS011;69051;52.406;5.280;2024-02-26T02:41:53;21.58;;;8.27;;
79578;SDS011;69051;52.406;5.280;2024-02-26T02:44:19;18.48;;;8.38;;
79578;SDS011;69051;52.406;5.280;2024-02-26T02:46:46;16.60;;;7.75;;
79578;SDS011;69051;52.406;5.280;2024-02-26T02:49:12;20.23;;;8.38;;
79578;SDS011;69051;52.406;5.280;2024-02-26T02:51:40;19.35;;;8.82;;
79578;SDS011;69051;52.406;5.280;2024-02-26T02:54:06;18.33;;;7.93;;
79578;SDS011;69051;52.406;5.280;2024-02-26T02:56:33;15.18;;;7.18;;
79578;SDS011;69051;52.406;5.280;2024-02-26T02:58:59;21.67;;;8.02;;
79578;SDS011;69051;52.406;5.280;2024-02-26T03:01:26;22.00;;;9.05;;
79578;SDS011;69051;52.406;5.280;2024-02-26T03:03:52;21.33;;;9.10;;
79578;SDS011;69051;52.406;5.280;2024-02-26T03:06:19;22.98;;;8.10;;
79578;SDS011;69051;52.406;5.280;2024-02-26T03:08:47;21.08;;;8.63;;
79578;SDS011;69051;52.406;5.280;2024-02-26T03:11:14;17.52;;;7.72;;
79578;SDS011;69051;52.406;5.280;2024-02-26T03:13:41;19.15;;;7.85;;
79578;SDS011;69051;52.406;5.280;2024-02-26T03:16:08;19.48;;;7.97;;
79578;SDS011;69051;52.406;5.280;2024-02-26T03:18:34;22.13;;;8.65;;
79578;SDS011;69051;52.406;5.280;2024-02-26T03:21:01;19.40;;;8.88;;
79578;SDS011;69051;52.406;5.280;2024-02-26T03:23:28;21.25;;;10.38;;
79578;SDS011;69051;52.406;5.280;2024-02-26T03:25:56;21.40;;;7.97;;
79578;SDS011;69051;52.406;5.280;2024-02-26T03:28:23;21.90;;;9.10;;
79578;SDS011;69051;52.406;5.280;2024-02-26T03:30:50;25.52;;;8.63;;
79578;SDS011;69051;52.406;5.280;2024-02-26T03:33:16;23.45;;;10.48;;
79578;SDS011;69051;52.406;5.280;2024-02-26T03:35:43;21.15;;;9.50;;
79578;SDS011;69051;52.406;5.280;2024-02-26T03:38:10;22.50;;;8.38;;
79578;SDS011;69051;52.406;5.280;2024-02-26T03:40:36;18.90;;;8.50;;
79578;SDS011;69051;52.406;5.280;2024-02-26T03:43:03;22.55;;;8.05;;
79578;SDS011;69051;52.406;5.280;2024-02-26T03:45:30;26.88;;;8.85;;
79578;SDS011;69051;52.406;5.280;2024-02-26T03:47:57;22.35;;;9.52;;
79578;SDS011;69051;52.406;5.280;2024-02-26T03:50:24;19.75;;;7.90;;
79578;SDS011;69051;52.406;5.280;2024-02-26T03:52:50;20.48;;;8.90;;
79578;SDS011;69051;52.406;5.280;2024-02-26T03:55:17;21.25;;;9.20;;
79578;SDS011;69051;52.406;5.280;2024-02-26T03:57:47;20.90;;;8.98;;
79578;SDS011;69051;52.406;5.280;2024-02-26T04:00:13;19.80;;;8.90;;
79578;SDS011;69051;52.406;5.280;2024-02-26T04:02:40;19.05;;;9.18;;
79578;SDS011;69051;52.406;5.280;2024-02-26T04:05:10;23.60;;;11.02;;
79578;SDS011;69051;52.406;5.280;2024-02-26T04:07:37;22.48;;;9.40;;
79578;SDS011;69051;52.406;5.280;2024-02-26T04:10:03;23.80;;;10.40;;
79578;SDS011;69051;52.406;5.280;2024-02-26T04:12:35;24.63;;;9.00;;
79578;SDS011;69051;52.406;5.280;2024-02-26T04:15:01;22.27;;;9.27;;
79578;SDS011;69051;52.406;5.280;2024-02-26T04:17:29;22.92;;;8.73;;
79578;SDS011;69051;52.406;5.280;2024-02-26T04:19:56;26.48;;;11.55;;
79578;SDS011;69051;52.406;5.280;2024-02-26T04:22:22;24.17;;;9.93;;
79578;SDS011;69051;52.406;5.280;2024-02-26T04:24:49;25.38;;;9.90;;
79578;SDS011;69051;52.406;5.280;2024-02-26T04:27:15;23.85;;;8.15;;
79578;SDS011;69051;52.406;5.280;2024-02-26T04:29:42;23.75;;;10.13;;
79578;SDS011;69051;52.406;5.280;2024-02-26T04:32:08;23.40;;;8.10;;
79578;SDS011;69051;52.406;5.280;2024-02-26T04:34:35;27.92;;;10.13;;
79578;SDS011;69051;52.406;5.280;2024-02-26T04:37:01;28.33;;;10.30;;
79578;SDS011;69051;52.406;5.280;2024-02-26T04:39:28;26.30;;;9.80;;
79578;SDS011;69051;52.406;5.280;2024-02-26T04:41:54;31.58;;;11.63;;
79578;SDS011;69051;52.406;5.280;2024-02-26T04:44:21;25.92;;;11.20;;
79578;SDS011;69051;52.406;5.280;2024-02-26T04:46:47;25.75;;;11.48;;
79578;SDS011;69051;52.406;5.280;2024-02-26T04:49:14;26.05;;;11.00;;
79578;SDS011;69051;52.406;5.280;2024-02-26T04:51:40;25.60;;;9.85;;
79578;SDS011;69051;52.406;5.280;2024-02-26T04:54:07;33.15;;;15.30;;
79578;SDS011;69051;52.406;5.280;2024-02-26T04:56:33;32.45;;;13.43;;
79578;SDS011;69051;52.406;5.280;2024-02-26T04:59:00;31.75;;;12.45;;
79578;SDS011;69051;52.406;5.280;2024-02-26T05:01:26;26.85;;;11.00;;
79578;SDS011;69051;52.406;5.280;2024-02-26T05:03:53;30.77;;;12.63;;
79578;SDS011;69051;52.406;5.280;2024-02-26T05:06:20;28.45;;;11.57;;
79578;SDS011;69051;52.406;5.280;2024-02-26T05:08:46;29.40;;;11.50;;
79578;SDS011;69051;52.406;5.280;2024-02-26T05:11:13;31.15;;;12.48;;
79578;SDS011;69051;52.406;5.280;2024-02-26T05:13:39;33.42;;;12.90;;
79578;SDS011;69051;52.406;5.280;2024-02-26T05:16:07;28.58;;;10.25;;
79578;SDS011;69051;52.406;5.280;2024-02-26T05:18:33;34.35;;;12.88;;
79578;SDS011;69051;52.406;5.280;2024-02-26T05:21:00;31.17;;;12.65;;
79578;SDS011;69051;52.406;5.280;2024-02-26T05:23:26;34.65;;;12.90;;
79578;SDS011;69051;52.406;5.280;2024-02-26T05:25:53;32.55;;;13.85;;
79578;SDS011;69051;52.406;5.280;2024-02-26T05:28:19;34.17;;;13.82;;
79578;SDS011;69051;52.406;5.280;2024-02-26T05:30:47;28.83;;;11.10;;
79578;SDS011;69051;52.406;5.280;2024-02-26T05:33:13;18.83;;;8.30;;
79578;SDS011;69051;52.406;5.280;2024-02-26T05:35:44;29.15;;;11.75;;
79578;SDS011;69051;52.406;5.280;2024-02-26T05:38:11;37.47;;;16.95;;
79578;SDS011;69051;52.406;5.280;2024-02-26T05:40:37;27.55;;;11.05;;
79578;SDS011;69051;52.406;5.280;2024-02-26T05:43:05;33.22;;;13.05;;
79578;SDS011;69051;52.406;5.280;2024-02-26T05:45:31;34.00;;;13.10;;
79578;SDS011;69051;52.406;5.280;2024-02-26T05:47:59;28.73;;;11.82;;
79578;SDS011;69051;52.406;5.280;2024-02-26T05:50:26;34.30;;;13.23;;
79578;SDS011;69051;52.406;5.280;2024-02-26T05:52:52;25.65;;;10.15;;
79578;SDS011;69051;52.406;5.280;2024-02-26T05:55:19;34.03;;;13.70;;
79578;SDS011;69051;52.406;5.280;2024-02-26T05:57:45;29.50;;;12.15;;
79578;SDS011;69051;52.406;5.280;2024-02-26T06:00:12;34.30;;;15.15;;
79578;SDS011;69051;52.406;5.280;2024-02-26T06:02:41;26.52;;;10.35;;
79578;SDS011;69051;52.406;5.280;2024-02-26T06:05:07;25.35;;;10.20;;
79578;SDS011;69051;52.406;5.280;2024-02-26T06:07:35;29.05;;;13.32;;
79578;SDS011;69051;52.406;5.280;2024-02-26T06:10:02;29.45;;;12.10;;
79578;SDS011;69051;52.406;5.280;2024-02-26T06:12:30;33.35;;;13.07;;
79578;SDS011;69051;52.406;5.280;2024-02-26T06:14:57;25.73;;;12.18;;
79578;SDS011;69051;52.406;5.280;2024-02-26T06:17:28;27.77;;;11.48;;
79578;SDS011;69051;52.406;5.280;2024-02-26T06:19:54;26.25;;;12.50;;
79578;SDS011;69051;52.406;5.280;2024-02-26T06:22:21;22.80;;;10.70;;
79578;SDS011;69051;52.406;5.280;2024-02-26T06:24:48;28.20;;;12.68;;
79578;SDS011;69051;52.406;5.280;2024-02-26T06:27:14;30.17;;;13.30;;
79578;SDS011;69051;52.406;5.280;2024-02-26T06:29:41;27.00;;;11.93;;
79578;SDS011;69051;52.406;5.280;2024-02-26T06:32:08;23.60;;;11.85;;
79578;SDS011;69051;52.406;5.280;2024-02-26T06:34:34;26.13;;;11.90;;
79578;SDS011;69051;52.406;5.280;2024-02-26T06:37:01;27.45;;;11.32;;
79578;SDS011;69051;52.406;5.280;2024-02-26T06:39:29;29.17;;;11.90;;
79578;SDS011;69051;52.406;5.280;2024-02-26T06:41:56;27.88;;;10.95;;
79578;SDS011;69051;52.406;5.280;2024-02-26T06:44:27;24.48;;;10.48;;
79578;SDS011;69051;52.406;5.280;2024-02-26T06:46:58;29.23;;;13.07;;
79578;SDS011;69051;52.406;5.280;2024-02-26T06:49:28;21.45;;;9.13;;
79578;SDS011;69051;52.406;5.280;2024-02-26T06:51:55;24.45;;;10.85;;
79578;SDS011;69051;52.406;5.280;2024-02-26T06:54:21;24.70;;;10.50;;
79578;SDS011;69051;52.406;5.280;2024-02-26T06:56:48;18.55;;;8.50;;
79578;SDS011;69051;52.406;5.280;2024-02-26T06:59:14;25.38;;;9.80;;
79578;SDS011;69051;52.406;5.280;2024-02-26T07:01:41;19.33;;;8.63;;
79578;SDS011;69051;52.406;5.280;2024-02-26T07:04:08;22.17;;;9.20;;
79578;SDS011;69051;52.406;5.280;2024-02-26T07:06:36;22.48;;;9.10;;
79578;SDS011;69051;52.406;5.280;2024-02-26T07:09:03;19.67;;;7.90;;
79578;SDS011;69051;52.406;5.280;2024-02-26T07:11:30;20.25;;;7.93;;
79578;SDS011;69051;52.406;5.280;2024-02-26T07:13:56;20.20;;;7.95;;
79578;SDS011;69051;52.406;5.280;2024-02-26T07:16:23;21.33;;;8.40;;
79578;SDS011;69051;52.406;5.280;2024-02-26T07:18:49;19.08;;;7.88;;
79578;SDS011;69051;52.406;5.280;2024-02-26T07:21:16;17.52;;;6.90;;
79578;SDS011;69051;52.406;5.280;2024-02-26T07:23:42;10.85;;;5.72;;
79578;SDS011;69051;52.406;5.280;2024-02-26T07:26:09;20.38;;;9.07;;
79578;SDS011;69051;52.406;5.280;2024-02-26T07:28:38;16.95;;;5.43;;
79578;SDS011;69051;52.406;5.280;2024-02-26T07:31:04;13.65;;;6.85;;
79578;SDS011;69051;52.406;5.280;2024-02-26T07:33:34;12.68;;;5.00;;
79578;SDS011;69051;52.406;5.280;2024-02-26T07:36:00;19.65;;;6.40;;
79578;SDS011;69051;52.406;5.280;2024-02-26T07:38:27;16.45;;;6.38;;
79578;SDS011;69051;52.406;5.280;2024-02-26T07:41:07;14.85;;;6.85;;
79578;SDS011;69051;52.406;5.280;2024-02-26T07:43:34;16.75;;;6.32;;
79578;SDS011;69051;52.406;5.280;2024-02-26T07:46:01;13.68;;;5.72;;
79578;SDS011;69051;52.406;5.280;2024-02-26T07:48:27;13.82;;;5.93;;
79578;SDS011;69051;52.406;5.280;2024-02-26T07:50:54;11.85;;;4.38;;
79578;SDS011;69051;52.406;5.280;2024-02-26T07:53:21;13.43;;;5.35;;
79578;SDS011;69051;52.406;5.280;2024-02-26T07:55:47;12.98;;;5.25;;
79578;SDS011;69051;52.406;5.280;2024-02-26T07:58:14;13.05;;;5.45;;
79578;SDS011;69051;52.406;5.280;2024-02-26T08:00:40;10.50;;;4.78;;
79578;SDS011;69051;52.406;5.280;2024-02-26T08:03:07;13.93;;;5.57;;
79578;SDS011;69051;52.406;5.280;2024-02-26T08:05:34;12.18;;;4.82;;
79578;SDS011;69051;52.406;5.280;2024-02-26T08:08:00;12.45;;;5.05;;
79578;SDS011;69051;52.406;5.280;2024-02-26T08:10:30;13.02;;;5.85;;
79578;SDS011;69051;52.406;5.280;2024-02-26T08:12:58;15.05;;;5.43;;
79578;SDS011;69051;52.406;5.280;2024-02-26T08:17:58;12.18;;;4.38;;
79578;SDS011;69051;52.406;5.280;2024-02-26T08:20:26;8.48;;;3.83;;
79578;SDS011;69051;52.406;5.280;2024-02-26T08:22:53;9.88;;;4.47;;
79578;SDS011;69051;52.406;5.280;2024-02-26T08:25:20;12.18;;;3.90;;
79578;SDS011;69051;52.406;5.280;2024-02-26T08:27:47;10.80;;;4.93;;
79578;SDS011;69051;52.406;5.280;2024-02-26T08:30:14;13.57;;;4.70;;
79578;SDS011;69051;52.406;5.280;2024-02-26T08:32:47;13.02;;;5.00;;
79578;SDS011;69051;52.406;5.280;2024-02-26T08:35:17;11.68;;;4.32;;
79578;SDS011;69051;52.406;5.280;2024-02-26T08:37:45;8.48;;;4.10;;
79578;SDS011;69051;52.406;5.280;2024-02-26T08:40:12;11.30;;;3.50;;
79578;SDS011;69051;52.406;5.280;2024-02-26T08:42:39;9.48;;;3.85;;
79578;SDS011;69051;52.406;5.280;2024-02-26T08:45:06;10.45;;;4.45;;
79578;SDS011;69051;52.406;5.280;2024-02-26T08:47:34;8.50;;;3.88;;
79578;SDS011;69051;52.406;5.280;2024-02-26T08:50:00;13.18;;;4.53;;
79578;SDS011;69051;52.406;5.280;2024-02-26T08:52:27;8.55;;;3.83;;
79578;SDS011;69051;52.406;5.280;2024-02-26T08:54:53;7.13;;;3.00;;
79578;SDS011;69051;52.406;5.280;2024-02-26T08:57:20;8.75;;;4.20;;
79578;SDS011;69051;52.406;5.280;2024-02-26T08:59:46;10.00;;;4.60;;
79578;SDS011;69051;52.406;5.280;2024-02-26T09:02:13;10.55;;;4.35;;
79578;SDS011;69051;52.406;5.280;2024-02-26T09:04:40;11.70;;;5.53;;
79578;SDS011;69051;52.406;5.280;2024-02-26T09:07:06;10.07;;;4.25;;
79578;SDS011;69051;52.406;5.280;2024-02-26T09:09:33;11.57;;;4.40;;
79578;SDS011;69051;52.406;5.280;2024-02-26T09:11:59;7.97;;;3.47;;
79578;SDS011;69051;52.406;5.280;2024-02-26T09:14:26;11.23;;;4.55;;
79578;SDS011;69051;52.406;5.280;2024-02-26T09:16:54;10.15;;;4.68;;
79578;SDS011;69051;52.406;5.280;2024-02-26T09:19:20;8.82;;;4.18;;
79578;SDS011;69051;52.406;5.280;2024-02-26T09:21:47;10.18;;;3.75;;
79578;SDS011;69051;52.406;5.280;2024-02-26T09:24:13;11.70;;;3.83;;
79578;SDS011;69051;52.406;5.280;2024-02-26T09:26:41;11.25;;;4.68;;
79578;SDS011;69051;52.406;5.280;2024-02-26T09:29:07;12.10;;;4.70;;
79578;SDS011;69051;52.406;5.280;2024-02-26T09:31:34;10.75;;;4.43;;
79578;SDS011;69051;52.406;5.280;2024-02-26T09:34:02;9.82;;;4.35;;
79578;SDS011;69051;52.406;5.280;2024-02-26T09:36:29;10.88;;;4.63;;
79578;SDS011;69051;52.406;5.280;2024-02-26T09:38:56;10.57;;;4.40;;
79578;SDS011;69051;52.406;5.280;2024-02-26T09:41:30;11.82;;;5.15;;
79578;SDS011;69051;52.406;5.280;2024-02-26T09:43:57;5.82;;;2.65;;
79578;SDS011;69051;52.406;5.280;2024-02-26T09:46:26;10.32;;;5.57;;
79578;SDS011;69051;52.406;5.280;2024-02-26T09:48:52;11.25;;;4.55;;
79578;SDS011;69051;52.406;5.280;2024-02-26T09:51:20;8.88;;;4.50;;
79578;SDS011;69051;52.406;5.280;2024-02-26T09:53:51;8.80;;;4.07;;
79578;SDS011;69051;52.406;5.280;2024-02-26T09:56:18;11.82;;;4.65;;
79578;SDS011;69051;52.406;5.280;2024-02-26T09:58:45;9.05;;;4.40;;
79578;SDS011;69051;52.406;5.280;2024-02-26T10:01:16;10.18;;;4.70;;
79578;SDS011;69051;52.406;5.280;2024-02-26T10:03:43;10.15;;;4.10;;
79578;SDS011;69051;52.406;5.280;2024-02-26T10:06:11;11.68;;;5.18;;
79578;SDS011;69051;52.406;5.280;2024-02-26T10:08:38;10.63;;;4.50;;
79578;SDS011;69051;52.406;5.280;2024-02-26T10:11:05;10.45;;;4.22;;
79578;SDS011;69051;52.406;5.280;2024-02-26T10:13:34;11.57;;;4.68;;
79578;SDS011;69051;52.406;5.280;2024-02-26T10:16:01;11.75;;;5.13;;
79578;SDS011;69051;52.406;5.280;2024-02-26T10:18:48;9.02;;;3.97;;
79578;SDS011;69051;52.406;5.280;2024-02-26T10:21:24;10.02;;;4.65;;
79578;SDS011;69051;52.406;5.280;2024-02-26T10:23:51;9.15;;;3.58;;
79578;SDS011;69051;52.406;5.280;2024-02-26T10:26:18;10.90;;;3.80;;
79578;SDS011;69051;52.406;5.280;2024-02-26T10:28:45;10.98;;;5.15;;
79578;SDS011;69051;52.406;5.280;2024-02-26T10:31:14;12.32;;;4.05;;
79578;SDS011;69051;52.406;5.280;2024-02-26T10:33:42;7.13;;;3.00;;
79578;SDS011;69051;52.406;5.280;2024-02-26T10:36:09;9.43;;;4.53;;
79578;SDS011;69051;52.406;5.280;2024-02-26T10:38:37;12.98;;;5.57;;
79578;SDS011;69051;52.406;5.280;2024-02-26T10:41:04;9.95;;;4.40;;
79578;SDS011;69051;52.406;5.280;2024-02-26T10:43:32;10.15;;;4.13;;
79578;SDS011;69051;52.406;5.280;2024-02-26T10:45:58;9.00;;;4.47;;
79578;SDS011;69051;52.406;5.280;2024-02-26T10:48:25;10.82;;;4.25;;
79578;SDS011;69051;52.406;5.280;2024-02-26T10:50:51;8.98;;;4.38;;
79578;SDS011;69051;52.406;5.280;2024-02-26T10:53:22;24.70;;;3.85;;
79578;SDS011;69051;52.406;5.280;2024-02-26T10:55:52;10.00;;;4.40;;
79578;SDS011;69051;52.406;5.280;2024-02-26T10:58:29;10.07;;;4.78;;
79578;SDS011;69051;52.406;5.280;2024-02-26T11:00:57;10.45;;;3.72;;
79578;SDS011;69051;52.406;5.280;2024-02-26T11:03:24;10.35;;;4.65;;
79578;SDS011;69051;52.406;5.280;2024-02-26T11:05:51;10.02;;;4.35;;
79578;SDS011;69051;52.406;5.280;2024-02-26T11:08:19;8.98;;;4.45;;
79578;SDS011;69051;52.406;5.280;2024-02-26T11:10:48;12.73;;;4.63;;
79578;SDS011;69051;52.406;5.280;2024-02-26T11:13:15;11.80;;;4.75;;
79578;SDS011;69051;52.406;5.280;2024-02-26T11:15:47;8.73;;;3.90;;
79578;SDS011;69051;52.406;5.280;2024-02-26T11:18:15;11.07;;;3.92;;
79578;SDS011;69051;52.406;5.280;2024-02-26T11:20:45;9.90;;;3.58;;
79578;SDS011;69051;52.406;5.280;2024-02-26T11:23:12;9.88;;;4.40;;
79578;SDS011;69051;52.406;5.280;2024-02-26T11:25:42;9.35;;;3.90;;
79578;SDS011;69051;52.406;5.280;2024-02-26T11:28:10;9.82;;;4.30;;
79578;SDS011;69051;52.406;5.280;2024-02-26T11:30:39;9.20;;;4.07;;
79578;SDS011;69051;52.406;5.280;2024-02-26T11:33:08;8.23;;;3.40;;
79578;SDS011;69051;52.406;5.280;2024-02-26T11:35:36;6.80;;;3.28;;
79578;SDS011;69051;52.406;5.280;2024-02-26T11:38:02;9.25;;;3.95;;
79578;SDS011;69051;52.406;5.280;2024-02-26T11:40:30;9.65;;;3.83;;
79578;SDS011;69051;52.406;5.280;2024-02-26T11:42:57;8.95;;;4.53;;
79578;SDS011;69051;52.406;5.280;2024-02-26T11:48:14;7.82;;;3.42;;
79578;SDS011;69051;52.406;5.280;2024-02-26T11:50:42;7.97;;;4.05;;
79578;SDS011;69051;52.406;5.280;2024-02-26T11:53:23;9.38;;;3.55;;
79578;SDS011;69051;52.406;5.280;2024-02-26T11:56:11;11.77;;;4.28;;
79578;SDS011;69051;52.406;5.280;2024-02-26T11:59:03;7.97;;;2.88;;
79578;SDS011;69051;52.406;5.280;2024-02-26T12:04:31;7.72;;;3.70;;
79578;SDS011;69051;52.406;5.280;2024-02-26T12:07:00;9.43;;;4.10;;
79578;SDS011;69051;52.406;5.280;2024-02-26T12:09:35;10.23;;;3.63;;
79578;SDS011;69051;52.406;5.280;2024-02-26T12:12:03;6.93;;;3.30;;
79578;SDS011;69051;52.406;5.280;2024-02-26T12:14:37;13.23;;;5.80;;
79578;SDS011;69051;52.406;5.280;2024-02-26T12:17:04;10.02;;;4.18;;
79578;SDS011;69051;52.406;5.280;2024-02-26T12:19:34;9.30;;;3.90;;
79578;SDS011;69051;52.406;5.280;2024-02-26T12:22:03;8.73;;;4.00;;
79578;SDS011;69051;52.406;5.280;2024-02-26T12:24:30;11.38;;;4.20;;
79578;SDS011;69051;52.406;5.280;2024-02-26T12:26:56;12.85;;;4.07;;
79578;SDS011;69051;52.406;5.280;2024-02-26T12:29:24;8.95;;;3.83;;
79578;SDS011;69051;52.406;5.280;2024-02-26T12:31:50;9.80;;;4.65;;
79578;SDS011;69051;52.406;5.280;2024-02-26T12:34:17;8.65;;;4.10;;
79578;SDS011;69051;52.406;5.280;2024-02-26T12:36:53;12.05;;;4.63;;
79578;SDS011;69051;52.406;5.280;2024-02-26T12:39:20;7.85;;;3.53;;
79578;SDS011;69051;52.406;5.280;2024-02-26T12:41:47;10.57;;;3.92;;
79578;SDS011;69051;52.406;5.280;2024-02-26T12:44:17;8.50;;;3.78;;
79578;SDS011;69051;52.406;5.280;2024-02-26T12:46:44;9.85;;;3.53;;
79578;SDS011;69051;52.406;5.280;2024-02-26T12:49:14;6.70;;;2.80;;
79578;SDS011;69051;52.406;5.280;2024-02-26T12:51:41;7.07;;;2.85;;
79578;SDS011;69051;52.406;5.280;2024-02-26T12:54:08;7.95;;;2.88;;
79578;SDS011;69051;52.406;5.280;2024-02-26T12:56:35;6.38;;;2.47;;
79578;SDS011;69051;52.406;5.280;2024-02-26T12:59:02;10.77;;;2.80;;
79578;SDS011;69051;52.406;5.280;2024-02-26T13:01:29;7.40;;;3.25;;
79578;SDS011;69051;52.406;5.280;2024-02-26T13:03:56;6.05;;;2.50;;
79578;SDS011;69051;52.406;5.280;2024-02-26T13:06:23;5.28;;;1.95;;
79578;SDS011;69051;52.406;5.280;2024-02-26T13:08:55;6.22;;;2.08;;
79578;SDS011;69051;52.406;5.280;2024-02-26T13:11:24;7.20;;;2.08;;
79578;SDS011;69051;52.406;5.280;2024-02-26T13:13:51;6.55;;;2.72;;
79578;SDS011;69051;52.406;5.280;2024-02-26T13:16:17;7.25;;;2.70;;
79578;SDS011;69051;52.406;5.280;2024-02-26T13:18:44;7.15;;;2.88;;
79578;SDS011;69051;52.406;5.280;2024-02-26T13:21:11;7.75;;;3.17;;
79578;SDS011;69051;52.406;5.280;2024-02-26T13:23:39;7.53;;;2.30;;
79578;SDS011;69051;52.406;5.280;2024-02-26T13:26:06;5.97;;;2.33;;
79578;SDS011;69051;52.406;5.280;2024-02-26T13:28:33;6.45;;;2.60;;
79578;SDS011;69051;52.406;5.280;2024-02-26T13:31:00;8.20;;;2.67;;
79578;SDS011;69051;52.406;5.280;2024-02-26T13:33:29;7.60;;;3.00;;
79578;SDS011;69051;52.406;5.280;2024-02-26T13:35:57;9.43;;;2.92;;
79578;SDS011;69051;52.406;5.280;2024-02-26T13:38:24;7.57;;;2.85;;
79578;SDS011;69051;52.406;5.280;2024-02-26T13:40:51;7.45;;;1.98;;
79578;SDS011;69051;52.406;5.280;2024-02-26T13:43:18;5.93;;;2.05;;
79578;SDS011;69051;52.406;5.280;2024-02-26T13:45:45;8.25;;;2.03;;
79578;SDS011;69051;52.406;5.280;2024-02-26T13:48:13;5.95;;;2.25;;
79578;SDS011;69051;52.406;5.280;2024-02-26T13:50:40;6.30;;;2.67;;
79578;SDS011;69051;52.406;5.280;2024-02-26T13:53:09;8.98;;;1.95;;
79578;SDS011;69051;52.406;5.280;2024-02-26T13:55:35;7.03;;;2.80;;
79578;SDS011;69051;52.406;5.280;2024-02-26T13:58:02;7.22;;;2.50;;
79578;SDS011;69051;52.406;5.280;2024-02-26T14:00:29;8.95;;;2.70;;
79578;SDS011;69051;52.406;5.280;2024-02-26T14:03:00;6.72;;;2.42;;
79578;SDS011;69051;52.406;5.280;2024-02-26T14:05:27;5.65;;;2.45;;
79578;SDS011;69051;52.406;5.280;2024-02-26T14:07:54;6.03;;;2.67;;
79578;SDS011;69051;52.406;5.280;2024-02-26T14:10:22;5.88;;;2.78;;
79578;SDS011;69051;52.406;5.280;2024-02-26T14:12:48;4.97;;;1.75;;
79578;SDS011;69051;52.406;5.280;2024-02-26T14:15:15;7.72;;;2.53;;
79578;SDS011;69051;52.406;5.280;2024-02-26T14:17:41;7.03;;;2.50;;
79578;SDS011;69051;52.406;5.280;2024-02-26T14:20:09;8.07;;;3.15;;
79578;SDS011;69051;52.406;5.280;2024-02-26T14:22:36;6.90;;;3.20;;
79578;SDS011;69051;52.406;5.280;2024-02-26T14:25:02;7.03;;;2.53;;
79578;SDS011;69051;52.406;5.280;2024-02-26T14:27:29;8.18;;;2.67;;
79578;SDS011;69051;52.406;5.280;2024-02-26T14:29:56;7.13;;;3.47;;
79578;SDS011;69051;52.406;5.280;2024-02-26T14:32:22;6.88;;;2.30;;
79578;SDS011;69051;52.406;5.280;2024-02-26T14:34:49;6.43;;;2.65;;
79578;SDS011;69051;52.406;5.280;2024-02-26T14:37:16;6.47;;;2.92;;
79578;SDS011;69051;52.406;5.280;2024-02-26T14:39:42;6.93;;;3.20;;
79578;SDS011;69051;52.406;5.280;2024-02-26T14:42:08;8.57;;;2.72;;
79578;SDS011;69051;52.406;5.280;2024-02-26T14:44:35;12.18;;;3.70;;